createdAt,value
2019-05-25T00:00:38.248Z,0
2019-05-25T00:03:30.757Z,0
2019-05-25T00:06:31.063Z,0
2019-05-25T00:09:31.310Z,0
2019-05-25T00:12:30.754Z,0
2019-05-25T00:15:31.083Z,0
2019-05-25T00:18:30.466Z,0
2019-05-25T00:21:32.089Z,0
2019-05-25T00:24:30.812Z,0
2019-05-25T00:27:30.171Z,0
2019-05-25T00:30:35.409Z,0
2019-05-25T00:33:30.903Z,0
2019-05-25T00:36:30.483Z,0
2019-05-25T00:39:30.554Z,0
2019-05-25T00:42:30.757Z,0
2019-05-25T00:45:31.222Z,0
2019-05-25T00:48:30.315Z,0
2019-05-25T00:51:30.359Z,0
2019-05-25T00:54:43.377Z,0
2019-05-25T00:57:31.535Z,0
2019-05-25T01:00:30.487Z,0
2019-05-25T01:03:30.682Z,0
2019-05-25T01:06:30.859Z,0
2019-05-25T01:09:29.891Z,0
2019-05-25T01:12:30.207Z,0
2019-05-25T01:15:32.385Z,0
2019-05-25T01:18:30.893Z,0
2019-05-25T01:21:30.278Z,0
2019-05-25T01:24:46.762Z,0
2019-05-25T01:27:31.109Z,0
2019-05-25T01:30:30.470Z,0
2019-05-25T01:33:30.671Z,0
2019-05-25T01:36:30.990Z,0
2019-05-25T01:39:30.100Z,0
2019-05-25T01:42:30.507Z,0
2019-05-25T01:45:31.315Z,0
2019-05-25T01:48:30.540Z,0
2019-05-25T01:51:35.908Z,0
2019-05-25T01:54:30.506Z,0
2019-05-25T01:57:30.839Z,0
2019-05-25T02:00:30.671Z,0
2019-05-25T02:03:31.104Z,0
2019-05-25T02:06:35.721Z,0
2019-05-25T02:09:31.087Z,0
2019-05-25T02:12:32.399Z,0
2019-05-25T02:15:30.473Z,0
2019-05-25T02:18:36.731Z,0
2019-05-25T02:21:31.022Z,0
2019-05-25T02:24:30.196Z,0
2019-05-25T02:27:30.333Z,0
2019-05-25T02:30:31.356Z,0
2019-05-25T02:33:30.761Z,0
2019-05-25T02:36:30.976Z,0
2019-05-25T02:39:30.223Z,0
2019-05-25T02:42:30.400Z,0
2019-05-25T02:45:30.816Z,0
2019-05-25T02:48:30.153Z,0
2019-05-25T02:51:30.587Z,0
2019-05-25T02:54:30.925Z,0
2019-05-25T02:57:30.163Z,1
2019-05-25T03:00:38.697Z,1
2019-05-25T03:03:32.040Z,2
2019-05-25T03:06:30.680Z,2
2019-05-25T03:09:34.519Z,4
2019-05-25T03:12:31.021Z,6
2019-05-25T03:15:30.368Z,10
2019-05-25T03:18:30.809Z,14
2019-05-25T03:21:30.103Z,20
2019-05-25T03:24:30.238Z,28
2019-05-25T03:27:30.654Z,40
2019-05-25T03:30:42.566Z,53
2019-05-25T03:33:36.456Z,76
2019-05-25T03:36:31.010Z,99
2019-05-25T03:39:30.319Z,123
2019-05-25T03:42:30.628Z,152
2019-05-25T03:45:30.963Z,168
2019-05-25T03:48:30.367Z,181
2019-05-25T03:51:36.557Z,198
2019-05-25T03:54:30.855Z,222
2019-05-25T03:57:30.196Z,248
2019-05-25T04:00:37.301Z,282
2019-05-25T04:03:30.815Z,318
2019-05-25T04:06:30.101Z,346
2019-05-25T04:09:30.415Z,388
2019-05-25T04:12:30.637Z,467
2019-05-25T04:15:32.251Z,538
2019-05-25T04:18:30.438Z,628
2019-05-25T04:21:30.909Z,730
2019-05-25T04:24:35.128Z,898
2019-05-25T04:27:31.867Z,1227
2019-05-25T04:30:30.274Z,1675
2019-05-25T04:33:30.693Z,1992
2019-05-25T04:36:31.049Z,2059
2019-05-25T04:39:30.380Z,2122
2019-05-25T04:42:30.890Z,2368
2019-05-25T04:45:30.140Z,2832
2019-05-25T04:48:31.636Z,3301
2019-05-25T04:51:30.985Z,4133
2019-05-25T04:54:30.444Z,5538
2019-05-25T04:57:30.732Z,6334
2019-05-25T05:00:31.285Z,7617
2019-05-25T05:03:30.818Z,7747
2019-05-25T05:06:30.172Z,9485
2019-05-25T05:09:30.559Z,9923
2019-05-25T05:12:31.010Z,10712
2019-05-25T05:15:30.500Z,11208
2019-05-25T05:18:30.792Z,12291
2019-05-25T05:21:31.191Z,13668
2019-05-25T05:24:30.592Z,13329
2019-05-25T05:27:30.796Z,13383
2019-05-25T05:30:36.669Z,13376
2019-05-25T05:33:31.509Z,13889
2019-05-25T05:36:32.117Z,10243
2019-05-25T05:39:32.039Z,17804
2019-05-25T05:42:32.936Z,9871
2019-05-25T05:45:33.609Z,14979
2019-05-25T05:48:32.052Z,6478
2019-05-25T05:51:33.214Z,5498
2019-05-25T05:54:30.831Z,5388
2019-05-25T05:57:30.303Z,5877
2019-05-25T06:00:31.446Z,7243
2019-05-25T06:03:30.951Z,10800
2019-05-25T06:06:31.802Z,9803
2019-05-25T06:09:30.127Z,8388
2019-05-25T06:12:30.504Z,9465
2019-05-25T06:15:30.926Z,22111
2019-05-25T06:18:30.334Z,27921
2019-05-25T06:21:21.623Z,28181
2019-05-25T06:24:30.963Z,30058
2019-05-25T06:30:11.923Z,0
2019-05-25T06:33:13.948Z,27618
2019-05-25T06:36:12.133Z,52660
2019-05-25T06:39:15.150Z,28401
2019-05-25T06:39:33.676Z,30759
2019-05-25T06:42:31.905Z,30833
2019-05-25T06:45:30.477Z,26542
2019-05-25T06:48:31.375Z,23199
2019-05-25T06:51:31.057Z,29365
2019-05-25T06:54:30.724Z,28688
2019-05-25T06:57:45.868Z,34332
2019-05-25T07:00:31.668Z,53656
2019-05-25T07:03:32.212Z,46657
2019-05-25T07:06:32.151Z,46525
2019-05-25T07:09:31.968Z,44923
2019-05-25T07:12:31.820Z,44411
2019-05-25T07:15:31.497Z,47023
2019-05-25T07:18:35.298Z,49562
2019-05-25T07:21:32.535Z,54612
2019-05-25T07:24:32.517Z,44732
2019-05-25T07:27:32.325Z,40816
2019-05-25T07:30:32.179Z,33368
2019-05-25T07:33:31.939Z,42973
2019-05-25T07:36:31.589Z,38384
2019-05-25T07:39:32.549Z,54612
2019-05-25T07:42:36.677Z,54612
2019-05-25T07:45:32.595Z,33254
2019-05-25T07:48:32.365Z,46775
2019-05-25T07:51:32.193Z,53868
2019-05-25T07:54:32.235Z,31119
2019-05-25T07:57:31.968Z,29278
2019-05-25T08:00:31.718Z,26312
2019-05-25T08:03:32.151Z,26354
2019-05-25T08:06:31.844Z,31634
2019-05-25T08:09:31.287Z,47812
2019-05-25T08:12:31.949Z,46970
2019-05-25T08:15:31.830Z,44908
2019-05-25T08:18:31.497Z,54612
2019-05-25T08:21:32.206Z,44499
2019-05-25T08:24:34.329Z,48535
2019-05-25T08:27:37.641Z,29369
2019-05-25T08:30:32.147Z,33992
2019-05-25T08:33:37.046Z,34132
2019-05-25T08:36:32.516Z,34256
2019-05-25T08:39:32.634Z,36062
2019-05-25T08:42:32.295Z,35886
2019-05-25T08:45:32.125Z,33846
2019-05-25T08:48:31.730Z,34401
2019-05-25T08:51:32.463Z,31760
2019-05-25T08:54:32.015Z,30348
2019-05-25T08:57:35.394Z,31520
2019-05-25T09:00:32.259Z,31667
2019-05-25T09:03:31.925Z,33707
2019-05-25T09:06:31.516Z,36447
2019-05-25T09:09:32.335Z,38942
2019-05-25T09:12:32.119Z,27485
2019-05-25T09:15:31.679Z,24723
2019-05-25T09:18:32.367Z,23894
2019-05-25T09:21:31.905Z,25612
2019-05-25T09:24:31.428Z,24692
2019-05-25T09:27:31.907Z,28248
2019-05-25T09:33:31.791Z,38026
2019-05-25T09:36:31.303Z,41282
2019-05-25T09:39:32.027Z,22256
2019-05-25T09:42:31.667Z,46167
2019-05-25T09:45:32.187Z,33248
2019-05-25T09:48:32.017Z,54612
2019-05-25T09:51:32.462Z,33350
2019-05-25T09:54:31.791Z,54612
2019-05-25T09:57:32.002Z,54612
2019-05-25T10:00:33.519Z,54612
2019-05-25T10:03:32.418Z,54612
2019-05-25T10:06:32.174Z,49431
2019-05-25T10:09:42.973Z,52284
2019-05-25T10:13:14.636Z,47618
2019-05-25T10:15:44.736Z,43385
2019-05-25T10:18:31.467Z,47943
2019-05-25T10:21:37.191Z,52077
2019-05-25T10:24:31.720Z,51895
2019-05-25T10:27:37.622Z,53058
2019-05-25T10:30:32.476Z,50350
2019-05-25T10:33:32.828Z,45922
2019-05-25T10:36:37.970Z,48310
2019-05-25T10:39:31.653Z,50268
2019-05-25T10:42:37.931Z,54612
2019-05-25T10:45:31.827Z,44715
2019-05-25T10:48:31.377Z,38175
2019-05-25T10:51:31.951Z,44390
2019-05-25T10:54:31.494Z,13381
2019-05-25T10:57:32.340Z,13399
2019-05-25T11:00:32.333Z,14741
2019-05-25T11:03:32.201Z,16302
2019-05-25T11:06:38.254Z,17898
2019-05-25T11:09:31.795Z,54612
2019-05-25T11:12:31.744Z,54612
2019-05-25T11:15:37.761Z,54612
2019-05-25T11:18:31.926Z,54612
2019-05-25T11:21:31.887Z,54612
2019-05-25T11:24:31.467Z,54612
2019-05-25T11:27:32.072Z,54612
2019-05-25T11:30:32.139Z,11448
2019-05-25T11:33:31.934Z,11272
2019-05-25T11:36:31.614Z,10940
2019-05-25T11:39:32.356Z,11078
2019-05-25T11:42:33.396Z,10962
2019-05-25T11:45:32.818Z,8564
2019-05-25T11:48:31.514Z,8332
2019-05-25T11:51:37.352Z,7745
2019-05-25T11:54:31.922Z,7459
2019-05-25T11:57:31.631Z,7415
2019-05-25T12:00:46.859Z,7268
2019-05-25T12:03:31.572Z,7906
2019-05-25T12:06:32.152Z,7533
2019-05-25T12:09:31.930Z,6920
2019-05-25T12:12:32.021Z,7530
2019-05-25T12:15:31.808Z,7035
2019-05-25T12:18:37.109Z,6608
2019-05-25T12:21:33.067Z,9078
2019-05-25T12:24:31.853Z,9750
2019-05-25T12:27:36.965Z,7842
2019-05-25T12:30:43.961Z,9681
2019-05-25T12:33:32.197Z,8622
2019-05-25T12:36:31.726Z,7738
2019-05-25T12:39:32.583Z,6767
2019-05-25T12:42:32.330Z,6313
2019-05-25T12:45:31.776Z,6061
2019-05-25T12:48:31.220Z,5520
2019-05-25T12:51:34.414Z,5099
2019-05-25T12:54:31.674Z,4955
2019-05-25T12:57:31.914Z,4829
2019-05-25T13:00:32.796Z,4655
2019-05-25T13:03:31.244Z,4500
2019-05-25T13:06:34.731Z,4396
2019-05-25T13:09:32.029Z,4360
2019-05-25T13:12:30.954Z,4273
2019-05-25T13:15:31.045Z,4203
2019-05-25T13:18:31.319Z,4103
2019-05-25T13:21:31.829Z,4015
2019-05-25T13:24:30.546Z,3888
2019-05-25T13:27:31.244Z,3857
2019-05-25T13:30:41.898Z,3814
2019-05-25T13:33:30.475Z,3780
2019-05-25T13:36:31.440Z,3710
2019-05-25T13:39:31.084Z,3632
2019-05-25T13:42:31.832Z,3603
2019-05-25T13:45:30.384Z,3522
2019-05-25T13:48:30.878Z,3458
2019-05-25T13:51:30.589Z,3557
2019-05-25T13:54:31.070Z,3527
2019-05-25T13:57:32.160Z,3508
2019-05-25T14:00:30.739Z,3452
2019-05-25T14:03:31.835Z,3453
2019-05-25T14:06:30.362Z,3481
2019-05-25T14:09:31.764Z,3522
2019-05-25T14:12:31.495Z,3554
2019-05-25T14:15:31.268Z,3475
2019-05-25T14:18:31.160Z,3422
2019-05-25T14:21:30.987Z,3396
2019-05-25T14:24:40.976Z,3338
2019-05-25T14:27:59.109Z,3238
2019-05-25T14:30:37.072Z,3165
2019-05-25T14:33:30.952Z,3118
2019-05-25T14:36:45.052Z,3062
2019-05-25T14:39:53.873Z,3000
2019-05-25T14:42:32.860Z,2957
2019-05-25T14:45:30.586Z,3220
2019-05-25T14:48:31.334Z,3078
2019-05-25T14:51:30.995Z,2752
2019-05-25T14:54:30.603Z,2718
2019-05-25T14:57:31.412Z,2691
2019-05-25T15:00:31.242Z,2736
2019-05-25T15:03:30.927Z,2787
2019-05-25T15:06:30.740Z,2752
2019-05-25T15:09:31.772Z,2706
2019-05-25T15:12:30.680Z,2795
2019-05-25T15:15:31.433Z,2743
2019-05-25T15:18:31.287Z,2623
2019-05-25T15:21:32.099Z,2821
2019-05-25T15:24:30.960Z,2839
2019-05-25T15:27:30.668Z,2834
2019-05-25T15:30:31.474Z,3526
2019-05-25T15:33:31.149Z,4413
2019-05-25T15:36:30.879Z,3971
2019-05-25T15:39:30.935Z,3364
2019-05-25T15:42:30.494Z,2908
2019-05-25T15:45:31.431Z,2608
2019-05-25T15:48:31.279Z,2622
2019-05-25T15:51:31.064Z,3348
2019-05-25T15:54:31.022Z,3551
2019-05-25T15:57:30.582Z,3431
2019-05-25T16:01:03.883Z,3298
2019-05-25T16:03:30.485Z,3967
2019-05-25T16:06:31.384Z,4466
2019-05-25T16:09:31.138Z,4275
2019-05-25T16:12:30.825Z,4515
2019-05-25T16:15:32.312Z,4478
2019-05-25T16:18:31.249Z,4252
2019-05-25T16:21:31.009Z,3998
2019-05-25T16:24:30.927Z,4549
2019-05-25T16:27:30.731Z,5282
2019-05-25T16:30:34.303Z,4502
2019-05-25T16:33:31.132Z,3513
2019-05-25T16:36:30.899Z,2886
2019-05-25T16:39:30.664Z,2311
2019-05-25T16:42:31.423Z,2062
2019-05-25T16:45:31.272Z,1959
2019-05-25T16:48:31.033Z,1945
2019-05-25T16:51:30.829Z,1914
2019-05-25T16:54:30.617Z,1872
2019-05-25T16:57:31.370Z,1922
2019-05-25T17:00:32.108Z,1864
2019-05-25T17:03:44.664Z,1784
2019-05-25T17:06:31.374Z,1668
2019-05-25T17:09:31.015Z,1502
2019-05-25T17:12:30.779Z,1412
2019-05-25T17:15:31.809Z,1394
2019-05-25T17:18:30.690Z,1412
2019-05-25T17:21:32.580Z,1550
2019-05-25T17:24:31.288Z,1500
2019-05-25T17:27:30.999Z,1316
2019-05-25T17:30:44.625Z,1402
2019-05-25T17:33:48.458Z,1457
2019-05-25T17:36:31.220Z,1417
2019-05-25T17:39:31.151Z,1440
2019-05-25T17:42:30.813Z,1532
2019-05-25T17:45:30.398Z,1624
2019-05-25T17:48:31.021Z,1570
2019-05-25T17:51:30.709Z,1469
2019-05-25T17:54:31.347Z,1472
2019-05-25T17:57:31.362Z,1625
2019-05-25T18:00:42.983Z,1634
2019-05-25T18:03:30.605Z,1459
2019-05-25T18:06:31.291Z,1428
2019-05-25T18:09:31.058Z,1386
2019-05-25T18:12:30.680Z,1278
2019-05-25T18:15:31.359Z,1182
2019-05-25T18:18:31.160Z,1120
2019-05-25T18:21:30.942Z,1125
2019-05-25T18:24:31.457Z,1024
2019-05-25T18:27:37.781Z,938
2019-05-25T18:30:31.119Z,902
2019-05-25T18:33:30.937Z,785
2019-05-25T18:36:30.602Z,676
2019-05-25T18:39:31.233Z,633
2019-05-25T18:42:33.039Z,597
2019-05-25T18:45:30.926Z,563
2019-05-25T18:48:34.259Z,492
2019-05-25T18:51:31.260Z,458
2019-05-25T18:54:30.918Z,398
2019-05-25T18:57:30.471Z,349
2019-05-25T19:00:32.321Z,312
2019-05-25T19:03:30.870Z,265
2019-05-25T19:06:30.637Z,224
2019-05-25T19:09:31.731Z,183
2019-05-25T19:12:31.332Z,147
2019-05-25T19:19:07.603Z,92
2019-05-25T19:21:43.891Z,79
2019-05-25T19:25:00.227Z,62
2019-05-25T19:27:38.167Z,43
2019-05-25T19:30:30.918Z,31
2019-05-25T19:33:30.444Z,22
2019-05-25T19:36:31.003Z,14
2019-05-25T19:39:30.764Z,9
2019-05-25T19:42:31.666Z,6
2019-05-25T19:45:32.988Z,3
2019-05-25T19:48:32.003Z,2
2019-05-25T19:51:32.128Z,2
2019-05-25T20:03:09.885Z,0
2019-05-25T20:03:31.065Z,0
2019-05-25T20:06:30.599Z,0
2019-05-25T20:11:42.436Z,0
2019-05-25T20:13:05.929Z,0
2019-05-25T20:15:30.522Z,0
2019-05-25T20:18:31.488Z,0
2019-05-25T20:21:31.174Z,0
2019-05-25T20:24:30.744Z,0
2019-05-25T20:27:31.478Z,0
2019-05-25T20:30:31.108Z,0
2019-05-25T20:33:44.511Z,0
2019-05-25T20:36:31.127Z,0
2019-05-25T20:39:30.879Z,0
2019-05-25T20:42:30.670Z,0
2019-05-25T20:45:32.206Z,0
2019-05-25T20:48:30.648Z,0
2019-05-25T20:51:31.436Z,0
2019-05-25T20:54:30.946Z,0
2019-05-25T20:57:30.566Z,0
2019-05-25T21:00:31.171Z,0
2019-05-25T21:03:30.898Z,0
2019-05-25T21:06:30.455Z,0
2019-05-25T21:09:30.963Z,0
2019-05-25T21:12:30.539Z,0
2019-05-25T21:15:31.331Z,0
2019-05-25T21:18:47.655Z,0
2019-05-25T21:21:34.627Z,0
2019-05-25T21:24:39.376Z,0
2019-05-25T21:27:39.867Z,0
2019-05-25T21:30:37.834Z,0
2019-05-25T21:33:33.297Z,0
2019-05-25T21:36:37.082Z,0
2019-05-25T21:40:49.075Z,0
2019-05-25T21:42:30.759Z,0
2019-05-25T21:45:31.363Z,0
2019-05-25T21:48:31.554Z,0
2019-05-25T21:53:11.921Z,0
2019-05-25T21:55:32.716Z,0
2019-05-25T21:57:37.076Z,0
2019-05-25T22:00:32.697Z,0
2019-05-25T22:03:31.380Z,0
2019-05-25T22:06:45.120Z,0
2019-05-25T22:09:31.187Z,0
2019-05-25T22:12:30.919Z,0
2019-05-25T22:15:30.543Z,0
2019-05-25T22:18:31.532Z,0
2019-05-25T22:21:31.080Z,0
2019-05-25T22:24:30.653Z,0
2019-05-25T22:27:31.327Z,0
2019-05-25T22:30:32.085Z,0
2019-05-25T22:33:30.485Z,0
2019-05-25T22:36:43.238Z,0
2019-05-25T22:39:30.734Z,0
2019-05-25T22:42:31.028Z,0
2019-05-25T22:45:30.455Z,0
2019-05-25T22:48:30.862Z,0
2019-05-25T22:51:30.187Z,0
2019-05-25T22:54:35.922Z,0
2019-05-25T22:57:30.448Z,0
2019-05-25T23:00:36.093Z,0
2019-05-25T23:03:32.072Z,0
2019-05-25T23:06:30.441Z,0
2019-05-25T23:09:36.447Z,0
2019-05-25T23:12:31.063Z,0
2019-05-25T23:15:30.585Z,0
2019-05-25T23:18:30.917Z,0
2019-05-25T23:21:30.584Z,0
2019-05-25T23:24:31.099Z,0
2019-05-25T23:27:32.100Z,0
2019-05-25T23:30:31.080Z,0
2019-05-25T23:33:30.711Z,0
2019-05-25T23:36:31.316Z,0
2019-05-25T23:39:30.691Z,0
2019-05-25T23:42:32.310Z,0
2019-05-25T23:45:36.480Z,0
2019-05-25T23:48:31.030Z,0
2019-05-25T23:51:30.810Z,0
2019-05-25T23:54:30.302Z,0
2019-05-25T23:57:31.310Z,0
